• Join FlightAware (Why Join?)
  • Login
  • US Flag 
11:15PM EDT


 

Airport Tracker/Info


-or-


 

Live Flight TrackerFlight Track Log ✈ SBM7361 ✈ 28-Apr-2013 ✈ MYEF / GGT - MYNN / NAS

Flight Track Log - Related Links

Times and Time Zones

All times are in EDT time to prevent confusion due to time zone crossing. See the SBM7361 flight status page for this flight to view local times or setup timezone preferences in your user account.

Time Position Orientation Groundspeed Altitude Reporting Facility
EDT Latitude Longitude Course Direction KTS MPH feet Rate Location/Type
08:24PM 23.5544 -75.8639 39° Northeast 247 284 700  Level Miami Center
08:25PM 23.5753 -75.8456 39° Northeast 165 190 2,100 1,380 Climbing Miami Center
08:26PM 23.5983 -75.8861 302° West 52 60 3,500 1,260 Climbing Miami Center
08:27PM 23.6153 -75.9314 292° West 114 131 4,700 1,200 Climbing Miami Center
08:28PM 23.6325 -75.9767 293° West 136 157 5,900 1,080 Climbing Miami Center
08:29PM 23.6472 -76.0242 289° West 157 181 6,900 900 Climbing Miami Center
08:30PM 23.6600 -76.0761 285° West 168 193 7,800 660 Climbing Miami Center
08:31PM 23.6814 -76.1283 294° West 178 205 8,300 480 Climbing Miami Center
08:32PM 23.7211 -76.1733 314° West 191 220 8,800 420 Climbing Miami Center
08:33PM 23.7675 -76.2164 320° Northwest 203 234 9,200 420 Climbing Miami Center
08:34PM 23.8136 -76.2592 320° Northwest 215 247 9,700 360 Climbing Miami Center
08:35PM 23.8597 -76.3044 318° Northwest 220 253 10,000 120 Climbing Miami Center
08:36PM 23.9100 -76.3542 318° Northwest 226 260 10,000  Level Miami Center
08:37PM 23.9603 -76.4042 318° Northwest 231 266 10,000  Level Miami Center
08:38PM 24.0106 -76.4517 319° Northwest 231 266 10,000  Level Miami Center
08:39PM 24.0547 -76.4947 318° Northwest 236 272 10,000  Level Miami Center
08:40PM 24.1050 -76.5447 318° Northwest 236 272 10,000  Level Miami Center
08:41PM 24.1614 -76.5992 319° Northwest 241 277 10,000  Level Miami Center
08:42PM 24.2117 -76.6492 318° Northwest 236 272 10,000  Level Miami Center
08:43PM 24.2619 -76.6969 319° Northwest 236 272 10,000  Level Miami Center
08:44PM 24.3122 -76.7472 318° Northwest 241 277 10,000  Level Miami Center
08:45PM 24.3539 -76.7903 317° Northwest 236 272 10,000  Level Miami Center
08:46PM 24.4042 -76.8406 318° Northwest 236 272 10,000  Level Miami Center
08:47PM 24.4564 -76.8886 320° Northwest 241 277 10,000  Level Miami Center
08:48PM 24.5044 -76.9389 316° Northwest 241 277 10,000  Level Miami Center
08:49PM 24.5544 -76.9867 319° Northwest 241 277 10,000 -480 Level Miami Center
08:50PM 24.6067 -77.0394 317° Northwest 241 277 9,100 -960 Descending Miami Center
08:51PM 24.6653 -77.0967 318° Northwest 251 289 8,100 -1,020 Descending Miami Center
08:52PM 24.7217 -77.1517 318° Northwest 270 311 7,100 -1,020 Descending Miami Center